createdAt,value
2019-05-09T00:00:15.419Z,4.8
2019-05-09T00:01:15.651Z,5.1
2019-05-09T00:02:15.655Z,4.9
2019-05-09T00:03:15.711Z,5.1
2019-05-09T00:04:15.887Z,4.9
2019-05-09T00:05:16.216Z,5
2019-05-09T00:06:16.088Z,4.8
2019-05-09T00:07:16.145Z,4.5
2019-05-09T00:08:17.095Z,4.8
2019-05-09T00:09:16.304Z,4.9
2019-05-09T00:10:16.347Z,4.7
2019-05-09T00:11:16.319Z,4.7
2019-05-09T00:12:16.545Z,4.8
2019-05-09T00:13:16.537Z,4.4
2019-05-09T00:14:16.709Z,4.3
2019-05-09T00:15:16.768Z,3.7
2019-05-09T00:16:16.787Z,4.1
2019-05-09T00:17:16.820Z,4.1
2019-05-09T00:18:16.851Z,3.9
2019-05-09T00:19:16.969Z,3.7
2019-05-09T00:20:17.098Z,3.4
2019-05-09T00:21:17.183Z,3.1
2019-05-09T00:22:17.210Z,3.9
2019-05-09T00:23:17.259Z,3.4
2019-05-09T00:24:17.280Z,3.2
2019-05-09T00:25:17.409Z,2.8
2019-05-09T00:26:17.428Z,3.2
2019-05-09T00:27:17.451Z,2.5
2019-05-09T00:28:17.507Z,2.5
2019-05-09T00:29:17.537Z,2.6
2019-05-09T00:30:17.669Z,2.7
2019-05-09T00:31:17.689Z,2.6
2019-05-09T00:32:17.644Z,2.6
2019-05-09T00:33:17.883Z,2.7
2019-05-09T00:34:17.945Z,2.2
2019-05-09T00:35:18.032Z,2.5
2019-05-09T00:36:18.009Z,2.5
2019-05-09T00:37:18.151Z,2.5
2019-05-09T00:38:18.178Z,2.3
2019-05-09T00:39:18.139Z,2.8
2019-05-09T00:40:18.322Z,2.6
2019-05-09T00:41:18.297Z,2.8
2019-05-09T00:42:18.413Z,3.2
2019-05-09T00:43:18.540Z,3.4
2019-05-09T00:44:18.660Z,3
2019-05-09T00:45:18.835Z,3.3
2019-05-09T00:46:18.795Z,3.4
2019-05-09T00:47:18.931Z,3.4
2019-05-09T00:48:19.040Z,3.5
2019-05-09T00:49:19.174Z,3.4
2019-05-09T00:50:19.336Z,3.3
2019-05-09T00:51:20.368Z,2.9
2019-05-09T00:52:19.338Z,2.9
2019-05-09T00:53:20.567Z,3
2019-05-09T00:54:19.679Z,2.9
2019-05-09T00:55:20.669Z,2.5
2019-05-09T00:56:20.733Z,2.4
2019-05-09T00:57:22.897Z,2.6
2019-05-09T00:59:20.981Z,2.6
2019-05-09T01:00:21.180Z,2.5
2019-05-09T01:01:21.189Z,2.4
2019-05-09T01:02:20.150Z,2.3
2019-05-09T01:03:23.262Z,2.5
2019-05-09T01:04:20.423Z,2.4
2019-05-09T01:05:23.695Z,2
2019-05-09T01:06:20.716Z,2.3
2019-05-09T01:07:23.246Z,2.3
2019-05-09T01:08:20.825Z,2.4
2019-05-09T01:09:20.973Z,2.2
2019-05-09T01:10:23.660Z,2.4
2019-05-09T01:11:21.089Z,2.4
2019-05-09T01:12:23.499Z,2.5
2019-05-09T01:13:23.141Z,2.4
2019-05-09T01:14:23.364Z,2.4
2019-05-09T01:15:23.726Z,2.4
2019-05-09T01:16:23.807Z,2.6
2019-05-09T01:17:23.810Z,2.7
2019-05-09T01:18:23.702Z,2.6
2019-05-09T01:19:23.352Z,2.6
2019-05-09T01:20:24.090Z,2.8
2019-05-09T01:21:23.977Z,2.5
2019-05-09T01:22:23.609Z,2.7
2019-05-09T01:23:23.394Z,2.6
2019-05-09T01:24:23.229Z,2.9
2019-05-09T01:25:23.989Z,2.8
2019-05-09T01:26:23.918Z,3.2
2019-05-09T01:27:23.396Z,2.9
2019-05-09T01:28:23.291Z,3
2019-05-09T01:29:23.204Z,2.9
2019-05-09T01:30:24.141Z,2.8
2019-05-09T01:31:24.213Z,2.9
2019-05-09T01:32:23.777Z,3
2019-05-09T01:33:24.150Z,2.7
2019-05-09T01:34:24.008Z,2.9
2019-05-09T01:35:23.689Z,3.5
2019-05-09T01:36:23.688Z,3.1
2019-05-09T01:37:23.865Z,3.1
2019-05-09T01:38:23.820Z,3.6
2019-05-09T01:39:24.234Z,3.2
2019-05-09T01:40:23.980Z,3.7
2019-05-09T01:41:30.293Z,3.2
2019-05-09T01:42:25.094Z,3.2
2019-05-09T01:43:24.438Z,3.3
2019-05-09T01:44:24.114Z,3.2
2019-05-09T01:45:24.238Z,3.5
2019-05-09T01:46:24.226Z,3.7
2019-05-09T01:47:24.263Z,3.2
2019-05-09T01:48:24.281Z,3.2
2019-05-09T01:49:24.339Z,3.9
2019-05-09T01:50:24.353Z,3.5
2019-05-09T01:51:24.371Z,3.6
2019-05-09T01:52:24.357Z,3.7
2019-05-09T01:53:24.475Z,3.5
2019-05-09T01:54:24.499Z,3.3
2019-05-09T01:55:24.486Z,3.5
2019-05-09T01:56:24.476Z,3.9
2019-05-09T01:57:24.489Z,3.6
2019-05-09T01:58:24.494Z,3.7
2019-05-09T01:59:24.480Z,3.6
2019-05-09T02:00:24.623Z,3.7
2019-05-09T02:01:24.799Z,3.7
2019-05-09T02:02:24.799Z,3.9
2019-05-09T02:03:24.842Z,4
2019-05-09T02:04:25.845Z,3.9
2019-05-09T02:05:24.806Z,4
2019-05-09T02:06:24.926Z,3.8
2019-05-09T02:07:25.067Z,3.7
2019-05-09T02:08:25.219Z,3.8
2019-05-09T02:09:25.387Z,4
2019-05-09T02:10:25.331Z,3.9
2019-05-09T02:11:39.251Z,4
2019-05-09T02:12:26.600Z,3.9
2019-05-09T02:13:25.568Z,4
2019-05-09T02:14:25.717Z,4.2
2019-05-09T02:15:25.847Z,3.7
2019-05-09T02:16:26.003Z,3.9
2019-05-09T02:17:26.133Z,3.6
2019-05-09T02:18:26.250Z,3.8
2019-05-09T02:19:26.563Z,3.7
2019-05-09T02:20:26.519Z,3.6
2019-05-09T02:21:26.651Z,3.6
2019-05-09T02:22:26.766Z,3.5
2019-05-09T02:23:26.927Z,3.9
2019-05-09T02:24:26.929Z,3.9
2019-05-09T02:25:26.910Z,3.6
2019-05-09T02:26:27.035Z,3.9
2019-05-09T02:27:27.172Z,3.7
2019-05-09T02:28:27.300Z,3.8
2019-05-09T02:29:27.477Z,3.7
2019-05-09T02:30:27.589Z,3.3
2019-05-09T02:31:27.715Z,3.4
2019-05-09T02:32:27.818Z,3.4
2019-05-09T02:33:27.965Z,3.8
2019-05-09T02:34:28.140Z,3.5
2019-05-09T02:35:29.206Z,3.7
2019-05-09T02:36:29.611Z,3.7
2019-05-09T02:38:29.410Z,3.8
2019-05-09T02:39:29.588Z,3.5
2019-05-09T02:40:28.658Z,3.7
2019-05-09T02:41:28.840Z,3.7
2019-05-09T02:42:28.820Z,3.6
2019-05-09T02:43:29.323Z,3.3
2019-05-09T02:44:29.168Z,3.5
2019-05-09T02:45:29.196Z,3.4
2019-05-09T02:46:29.605Z,3.4
2019-05-09T02:47:29.445Z,3.1
2019-05-09T02:48:29.558Z,3.2
2019-05-09T02:49:29.695Z,3.7
2019-05-09T02:50:29.870Z,3.7
2019-05-09T02:51:29.981Z,3.7
2019-05-09T02:52:30.106Z,3.6
2019-05-09T02:53:30.228Z,3.6
2019-05-09T02:54:30.348Z,3.5
2019-05-09T02:55:30.491Z,3.6
2019-05-09T02:56:30.637Z,3.8
2019-05-09T02:57:30.757Z,3.9
2019-05-09T02:58:30.888Z,3.5
2019-05-09T02:59:30.997Z,3.7
2019-05-09T03:00:31.154Z,3.8
2019-05-09T03:01:31.285Z,3.8
2019-05-09T03:02:31.415Z,4
2019-05-09T03:03:31.524Z,3.7
2019-05-09T03:04:31.636Z,3.4
2019-05-09T03:05:31.811Z,3.5
2019-05-09T03:06:31.778Z,3.6
2019-05-09T03:07:31.901Z,4
2019-05-09T03:08:32.050Z,3.7
2019-05-09T03:09:32.186Z,3.3
2019-05-09T03:10:32.381Z,3.5
2019-05-09T03:11:32.322Z,3.4
2019-05-09T03:12:35.676Z,3.5
2019-05-09T03:13:33.621Z,3.6
2019-05-09T03:14:32.573Z,3.3
2019-05-09T03:15:32.728Z,3.3
2019-05-09T03:16:32.718Z,3.3
2019-05-09T03:17:32.728Z,3.4
2019-05-09T03:18:32.734Z,3.5
2019-05-09T03:19:32.704Z,3.4
2019-05-09T03:20:32.885Z,3.5
2019-05-09T03:21:32.867Z,3.3
2019-05-09T03:22:32.991Z,3.1
2019-05-09T03:23:33.151Z,3.4
2019-05-09T03:24:34.304Z,3.3
2019-05-09T03:25:34.333Z,3.4
2019-05-09T03:26:33.370Z,3.1
2019-05-09T03:27:34.325Z,3.4
2019-05-09T03:28:33.456Z,3.2
2019-05-09T03:29:33.596Z,2.9
2019-05-09T03:30:33.789Z,3.3
2019-05-09T03:31:34.767Z,3.2
2019-05-09T03:32:34.767Z,2.9
2019-05-09T03:33:35.625Z,3
2019-05-09T03:34:34.831Z,3.1
2019-05-09T03:35:33.989Z,2.9
2019-05-09T03:36:35.119Z,3
2019-05-09T03:37:35.261Z,3.2
2019-05-09T03:39:37.509Z,2.7
2019-05-09T03:41:35.800Z,3.2
2019-05-09T03:42:40.888Z,3.5
2019-05-09T03:43:37.691Z,2.7
2019-05-09T03:44:34.924Z,2.7
2019-05-09T03:45:37.629Z,2.8
2019-05-09T03:46:35.222Z,2.6
2019-05-09T03:47:37.637Z,2.8
2019-05-09T03:48:36.863Z,2.7
2019-05-09T03:49:37.014Z,2.6
2019-05-09T03:50:35.452Z,2.8
2019-05-09T03:51:37.662Z,2.6
2019-05-09T03:52:37.265Z,2.8
2019-05-09T03:53:37.759Z,2.8
2019-05-09T03:54:37.490Z,2.6
2019-05-09T03:55:38.081Z,2.8
2019-05-09T03:56:37.533Z,2.9
2019-05-09T03:57:37.275Z,2.8
2019-05-09T03:58:38.384Z,2.8
2019-05-09T03:59:38.064Z,3
2019-05-09T04:00:37.540Z,2.9
2019-05-09T04:01:38.143Z,3.1
2019-05-09T04:02:38.333Z,2.8
2019-05-09T04:03:37.800Z,2.8
2019-05-09T04:04:38.337Z,2.7
2019-05-09T04:05:37.618Z,2.9
2019-05-09T04:06:39.061Z,3.2
2019-05-09T04:07:38.376Z,2.9
2019-05-09T04:08:37.594Z,3.1
2019-05-09T04:09:37.459Z,3.2
2019-05-09T04:10:38.518Z,3.1
2019-05-09T04:11:38.069Z,3.4
2019-05-09T04:12:37.606Z,3.8
2019-05-09T04:13:38.588Z,3.5
2019-05-09T04:14:37.658Z,4.2
2019-05-09T04:15:37.979Z,3.9
2019-05-09T04:16:38.123Z,3.9
2019-05-09T04:17:38.776Z,4.3
2019-05-09T04:18:40.228Z,4.4
2019-05-09T04:19:40.327Z,3.8
2019-05-09T04:20:37.970Z,4.1
2019-05-09T04:21:38.352Z,3.9
2019-05-09T04:22:38.627Z,4.3
2019-05-09T04:23:38.240Z,4.2
2019-05-09T04:24:38.390Z,4.1
2019-05-09T04:25:38.357Z,4
2019-05-09T04:26:38.428Z,4.2
2019-05-09T04:27:38.545Z,4
2019-05-09T04:28:39.880Z,3.8
2019-05-09T04:29:38.709Z,3.7
2019-05-09T04:30:38.778Z,3.6
2019-05-09T04:31:38.856Z,3.9
2019-05-09T04:32:38.991Z,3.6
2019-05-09T04:33:39.056Z,3.8
2019-05-09T04:34:39.162Z,3.8
2019-05-09T04:35:39.269Z,4
2019-05-09T04:36:39.360Z,4.1
2019-05-09T04:37:39.458Z,3.8
2019-05-09T04:38:39.954Z,4
2019-05-09T04:39:40.645Z,3.7
2019-05-09T04:40:44.666Z,3.8
2019-05-09T04:41:39.744Z,3.9
2019-05-09T04:42:44.193Z,3.7
2019-05-09T04:43:40.878Z,3.8
2019-05-09T04:48:41.236Z,3.9
2019-05-09T04:49:44.936Z,4.6
2019-05-09T04:50:41.333Z,4.5
2019-05-09T04:51:40.476Z,4.3
2019-05-09T04:52:40.546Z,4.4
2019-05-09T04:53:40.638Z,4.3
2019-05-09T04:54:40.715Z,4.7
2019-05-09T04:55:40.793Z,4.2
2019-05-09T04:56:40.859Z,4.6
2019-05-09T04:57:40.919Z,4.4
2019-05-09T04:58:41.033Z,4.6
2019-05-09T04:59:41.103Z,4.4
2019-05-09T05:00:41.219Z,4.2
2019-05-09T05:01:41.306Z,4.4
2019-05-09T05:02:41.416Z,4.6
2019-05-09T05:03:41.523Z,4.3
2019-05-09T05:04:41.668Z,3.7
2019-05-09T05:05:41.733Z,3.9
2019-05-09T05:06:41.794Z,4.1
2019-05-09T05:07:42.847Z,4.1
2019-05-09T05:08:41.974Z,3.4
2019-05-09T05:09:42.088Z,3.7
2019-05-09T05:10:42.177Z,3.8
2019-05-09T05:11:42.361Z,3.5
2019-05-09T05:12:42.316Z,3.5
2019-05-09T05:13:42.409Z,3.4
2019-05-09T05:14:42.637Z,3.3
2019-05-09T05:15:42.549Z,3
2019-05-09T05:16:42.707Z,3.7
2019-05-09T05:17:42.762Z,3.2
2019-05-09T05:18:42.850Z,3.5
2019-05-09T05:19:42.926Z,3.6
2019-05-09T05:20:44.020Z,3.7
2019-05-09T05:21:44.097Z,3.7
2019-05-09T05:22:44.173Z,3.8
2019-05-09T05:23:44.246Z,3.7
2019-05-09T05:24:43.328Z,3.8
2019-05-09T05:25:43.415Z,3.7
2019-05-09T05:26:44.493Z,4
2019-05-09T05:27:44.569Z,3.9
2019-05-09T05:28:43.649Z,4.2
2019-05-09T05:29:44.747Z,3.6
2019-05-09T05:30:43.875Z,3.5
2019-05-09T05:31:44.941Z,3.2
2019-05-09T05:32:44.078Z,3.4
2019-05-09T05:33:45.187Z,3.4
2019-05-09T05:34:45.296Z,3.1
2019-05-09T05:35:44.385Z,2.9
2019-05-09T05:36:47.435Z,2.8
2019-05-09T05:37:44.551Z,2.6
2019-05-09T05:38:47.754Z,2.8
2019-05-09T05:39:44.744Z,3
2019-05-09T05:40:47.513Z,2.8
2019-05-09T05:41:48.168Z,2.8
2019-05-09T05:42:47.571Z,2.9
2019-05-09T05:43:47.639Z,2.9
2019-05-09T05:44:45.134Z,2.8
2019-05-09T05:45:45.217Z,2.8
2019-05-09T05:46:48.142Z,3
2019-05-09T05:47:48.457Z,3.1
2019-05-09T05:48:45.418Z,3
2019-05-09T05:49:48.542Z,2.9
2019-05-09T05:50:45.580Z,3.2
2019-05-09T05:51:45.694Z,2.7
2019-05-09T05:52:47.515Z,2.9
2019-05-09T05:53:48.054Z,2.9
2019-05-09T05:54:47.678Z,3
2019-05-09T05:55:48.193Z,2.9
2019-05-09T05:56:47.483Z,2.6
2019-05-09T05:57:47.787Z,2.9
2019-05-09T05:58:48.704Z,3.1
2019-05-09T05:59:48.172Z,2.8
2019-05-09T06:00:48.078Z,3.1
2019-05-09T06:01:47.678Z,2.5
2019-05-09T06:02:47.833Z,3
2019-05-09T06:03:48.075Z,2.9
2019-05-09T06:04:48.570Z,2.6
2019-05-09T06:05:51.412Z,2.8
2019-05-09T06:06:48.377Z,2.8
2019-05-09T06:07:48.302Z,2.9
2019-05-09T06:08:48.480Z,2.7
2019-05-09T06:09:48.141Z,3
2019-05-09T06:10:48.352Z,2.6
2019-05-09T06:11:48.550Z,2.9
2019-05-09T06:12:48.234Z,3.3
2019-05-09T06:13:56.319Z,3.1
2019-05-09T06:14:49.060Z,2.9
2019-05-09T06:15:48.283Z,2.8
2019-05-09T06:16:48.712Z,3.2
2019-05-09T06:17:48.578Z,2.8
2019-05-09T06:18:48.269Z,3
2019-05-09T06:19:48.431Z,3
2019-05-09T06:20:48.769Z,3.3
2019-05-09T06:21:52.058Z,3.1
2019-05-09T06:22:49.505Z,3
2019-05-09T06:23:48.665Z,3.2
2019-05-09T06:24:48.797Z,2.6
2019-05-09T06:25:48.972Z,2.8
2019-05-09T06:26:48.946Z,3
2019-05-09T06:27:49.041Z,3
2019-05-09T06:28:49.152Z,3.2
2019-05-09T06:29:49.293Z,2.9
2019-05-09T06:30:49.391Z,2.9
2019-05-09T06:31:49.530Z,3.1
2019-05-09T06:32:49.642Z,2.9
2019-05-09T06:33:53.436Z,2.8
2019-05-09T06:34:50.723Z,2.7
2019-05-09T06:35:49.804Z,3.1
2019-05-09T06:36:49.924Z,2.7
2019-05-09T06:37:50.075Z,2.8
2019-05-09T06:38:50.191Z,2.8
2019-05-09T06:39:50.255Z,2.6
2019-05-09T06:40:50.362Z,2.6
2019-05-09T06:41:50.452Z,2.4
2019-05-09T06:42:50.575Z,2.6
2019-05-09T06:43:50.721Z,2.6
2019-05-09T06:44:50.805Z,2.7
2019-05-09T06:45:50.943Z,2.5
2019-05-09T06:46:51.077Z,2.4
2019-05-09T06:47:51.181Z,2.2
2019-05-09T06:48:51.303Z,2.5
2019-05-09T06:49:51.324Z,2.6
2019-05-09T06:50:51.346Z,2.6
2019-05-09T06:51:51.435Z,2.4
2019-05-09T06:52:51.469Z,2.4
2019-05-09T06:53:51.472Z,2.3
2019-05-09T06:54:51.503Z,2.4
2019-05-09T06:55:51.548Z,2.2
2019-05-09T06:56:51.640Z,2.7
2019-05-09T06:57:51.696Z,2.3
2019-05-09T06:58:51.738Z,2.4
2019-05-09T06:59:51.757Z,2.2
2019-05-09T07:00:51.793Z,2.3
2019-05-09T07:01:52.010Z,2.1
2019-05-09T07:02:51.843Z,2.1
2019-05-09T07:03:52.854Z,2.2
2019-05-09T07:04:51.852Z,2.4
2019-05-09T07:05:51.866Z,2.1
2019-05-09T07:06:51.942Z,2.4
2019-05-09T07:07:51.997Z,2.3
2019-05-09T07:08:52.021Z,2.1
2019-05-09T07:09:52.028Z,2.4
2019-05-09T07:10:52.033Z,2.6
2019-05-09T07:11:52.070Z,2.2
2019-05-09T07:12:52.126Z,2.4
2019-05-09T07:13:53.169Z,2.3
2019-05-09T07:14:53.163Z,2.2
2019-05-09T07:15:52.151Z,2.1
2019-05-09T07:16:52.175Z,2.4
2019-05-09T07:17:52.206Z,2.2
2019-05-09T07:18:52.251Z,2.3
2019-05-09T07:19:52.273Z,2.2
2019-05-09T07:20:52.302Z,2.1
2019-05-09T07:21:52.339Z,1.9
2019-05-09T07:22:52.396Z,2.1
2019-05-09T07:23:52.426Z,2.3
2019-05-09T07:24:56.414Z,1.9
2019-05-09T07:25:53.467Z,2.1
2019-05-09T07:26:52.500Z,2.2
2019-05-09T07:27:52.535Z,2.1
2019-05-09T07:28:52.541Z,2
2019-05-09T07:29:52.546Z,1.8
2019-05-09T07:30:52.577Z,1.9
2019-05-09T07:31:52.590Z,2
2019-05-09T07:32:52.647Z,2
2019-05-09T07:33:52.659Z,1.8
2019-05-09T07:34:52.688Z,2
2019-05-09T07:35:53.720Z,1.9
2019-05-09T07:36:53.718Z,1.9
2019-05-09T07:37:53.815Z,1.8
2019-05-09T07:38:53.815Z,1.9
2019-05-09T07:39:53.827Z,1.7
2019-05-09T07:40:53.806Z,1.7
2019-05-09T07:41:53.966Z,1.9
2019-05-09T07:42:54.045Z,1.8
2019-05-09T07:43:54.079Z,1.9
2019-05-09T07:49:54.229Z,1.7
2019-05-09T07:52:53.281Z,1.7
2019-05-09T07:53:54.319Z,1.5
2019-05-09T07:54:53.342Z,1.7
2019-05-09T07:55:54.374Z,1.6
2019-05-09T07:56:53.385Z,1.9
2019-05-09T07:57:55.226Z,1.7
2019-05-09T07:58:53.458Z,1.7
2019-05-09T07:59:53.518Z,1.8
2019-05-09T08:00:53.539Z,1.6
2019-05-09T08:01:53.573Z,2
2019-05-09T08:02:53.636Z,1.7
2019-05-09T08:03:53.688Z,1.3
2019-05-09T08:04:54.689Z,1.7
2019-05-09T08:05:54.697Z,1.7
2019-05-09T08:06:54.732Z,1.5
2019-05-09T08:07:54.724Z,1.3
2019-05-09T08:08:54.763Z,1.6
2019-05-09T08:09:54.793Z,1.6
2019-05-09T08:10:54.795Z,1.5
2019-05-09T08:11:54.807Z,1.5
2019-05-09T08:12:54.844Z,1.7
2019-05-09T08:13:57.295Z,1.4
2019-05-09T08:15:07.123Z,1.4
2019-05-09T08:15:55.046Z,1.2
2019-05-09T08:16:55.181Z,1.5
2019-05-09T08:17:54.210Z,1.4
2019-05-09T08:18:57.506Z,1.4
2019-05-09T08:19:54.328Z,1.5
2019-05-09T08:20:57.104Z,1.4
2019-05-09T08:21:54.484Z,1.4
2019-05-09T08:22:58.507Z,1.5
2019-05-09T08:23:54.641Z,1.4
2019-05-09T08:24:54.693Z,1.3
2019-05-09T08:25:54.734Z,1.4
2019-05-09T08:26:57.741Z,1.4
2019-05-09T08:27:54.764Z,1.6
2019-05-09T08:28:58.047Z,1.7
2019-05-09T08:29:54.907Z,1.5
2019-05-09T08:30:58.206Z,1.3
2019-05-09T08:31:54.935Z,1.3
2019-05-09T08:32:55.942Z,1.3
2019-05-09T08:33:58.925Z,1.3
2019-05-09T08:34:57.590Z,1.4
2019-05-09T08:36:57.972Z,1.5
2019-05-09T08:37:55.220Z,1.3
2019-05-09T08:38:58.584Z,1.5
2019-05-09T08:39:57.666Z,1.4
2019-05-09T08:40:55.451Z,1.2
2019-05-09T08:41:58.817Z,1.4
2019-05-09T08:42:55.639Z,1.3
2019-05-09T08:43:57.530Z,1.4
2019-05-09T08:44:57.750Z,1.5
2019-05-09T08:45:57.579Z,1.4
2019-05-09T08:46:57.370Z,1.2
2019-05-09T08:47:57.708Z,1.2
2019-05-09T08:48:57.538Z,1.4
2019-05-09T08:49:58.397Z,1.2
2019-05-09T08:50:58.224Z,1.5
2019-05-09T08:52:09.817Z,1.4
2019-05-09T08:52:57.684Z,1.3
2019-05-09T08:53:57.776Z,1.3
2019-05-09T08:54:57.798Z,1.2
2019-05-09T08:55:57.971Z,1.4
2019-05-09T08:56:58.104Z,1.6
2019-05-09T08:57:58.323Z,1.3
2019-05-09T08:59:01.073Z,1.2
2019-05-09T08:59:58.882Z,1.6
2019-05-09T09:01:03.193Z,1.1
2019-05-09T09:02:11.929Z,1.4
2019-05-09T09:02:57.706Z,1.2
2019-05-09T09:03:57.544Z,1.1
2019-05-09T09:04:58.159Z,1.5
2019-05-09T09:05:57.686Z,1.5
2019-05-09T09:06:57.611Z,1.1
2019-05-09T09:07:57.748Z,1.1
2019-05-09T09:08:57.504Z,1.1
2019-05-09T09:09:57.697Z,1.4
2019-05-09T09:10:57.749Z,1.2
2019-05-09T09:11:58.285Z,1.2
2019-05-09T09:12:57.953Z,1.2
2019-05-09T09:13:57.806Z,1.1
2019-05-09T09:14:58.543Z,1.3
2019-05-09T09:16:11.512Z,1.4
2019-05-09T09:16:58.581Z,1.3
2019-05-09T09:17:57.988Z,1.4
2019-05-09T09:18:58.325Z,1.1
2019-05-09T09:19:58.350Z,1.1
2019-05-09T09:20:58.818Z,1.1
2019-05-09T09:22:00.441Z,1.4
2019-05-09T09:22:58.448Z,1.3
2019-05-09T09:23:58.295Z,1.3
2019-05-09T09:24:58.591Z,1.7
2019-05-09T09:25:58.404Z,1.2
2019-05-09T09:26:58.045Z,1.2
2019-05-09T09:27:58.482Z,1.1
2019-05-09T09:28:58.042Z,1.4
2019-05-09T09:29:58.819Z,1.3
2019-05-09T09:30:59.230Z,1.5
2019-05-09T09:31:58.176Z,1.3
2019-05-09T09:32:58.699Z,1.3
2019-05-09T09:33:58.609Z,1.4
2019-05-09T09:34:58.791Z,1.4
2019-05-09T09:35:58.466Z,1.4
2019-05-09T09:37:02.858Z,1.4
2019-05-09T09:37:59.481Z,1.4
2019-05-09T09:38:58.796Z,1.3
2019-05-09T09:39:59.699Z,1.3
2019-05-09T09:40:58.686Z,1.3
2019-05-09T09:41:58.829Z,1.4
2019-05-09T09:42:58.720Z,1.2
2019-05-09T09:43:58.721Z,1.4
2019-05-09T09:44:58.803Z,1.2
2019-05-09T09:46:10.257Z,1.8
2019-05-09T09:47:00.051Z,1.4
2019-05-09T09:47:59.430Z,1.5
2019-05-09T09:48:59.093Z,1.4
2019-05-09T09:50:00.491Z,1.2
2019-05-09T09:50:59.095Z,1.3
2019-05-09T09:51:59.213Z,1.3
2019-05-09T09:52:59.203Z,1.2
2019-05-09T09:53:59.140Z,1.4
2019-05-09T09:54:59.134Z,1.3
2019-05-09T09:56:00.232Z,1.3
2019-05-09T09:56:59.186Z,1.4
2019-05-09T09:57:59.186Z,1.3
2019-05-09T09:58:59.235Z,1.4
2019-05-09T09:59:59.284Z,1.3
2019-05-09T10:01:02.698Z,1.5
2019-05-09T10:02:00.362Z,1.4
2019-05-09T10:02:59.413Z,1.3
2019-05-09T10:04:14.494Z,1.3
2019-05-09T10:05:00.417Z,1.6
2019-05-09T10:05:59.410Z,1.6
2019-05-09T10:06:59.540Z,1.4
2019-05-09T10:07:59.557Z,1.4
2019-05-09T10:08:59.570Z,1.2
2019-05-09T10:09:59.574Z,1.6
2019-05-09T10:10:59.576Z,1.4
2019-05-09T10:12:00.643Z,1.5
2019-05-09T10:13:03.489Z,1.7
2019-05-09T10:14:00.712Z,1.4
2019-05-09T10:14:59.714Z,1.5
2019-05-09T10:15:59.716Z,1.6
2019-05-09T10:16:59.726Z,1.5
2019-05-09T10:17:59.789Z,1.3
2019-05-09T10:18:59.813Z,1.3
2019-05-09T10:19:59.947Z,1.4
2019-05-09T10:20:59.958Z,1
2019-05-09T10:21:59.968Z,1.4
2019-05-09T10:23:10.343Z,1.3
2019-05-09T10:24:01.111Z,1.3
2019-05-09T10:25:00.093Z,1.4
2019-05-09T10:26:00.115Z,1.3
2019-05-09T10:27:00.144Z,1.2
2019-05-09T10:28:00.216Z,1.3
2019-05-09T10:29:00.244Z,1.1
2019-05-09T10:30:00.248Z,1.2
2019-05-09T10:31:00.254Z,1.1
2019-05-09T10:32:00.256Z,1.2
2019-05-09T10:33:00.307Z,1.3
2019-05-09T10:34:00.524Z,1.4
2019-05-09T10:35:00.486Z,1.1
2019-05-09T10:36:03.984Z,1.2
2019-05-09T10:37:00.540Z,1.1
2019-05-09T10:38:01.543Z,1.5
2019-05-09T10:39:00.570Z,1.1
2019-05-09T10:40:00.592Z,1
2019-05-09T10:41:01.843Z,1.3
2019-05-09T10:42:00.649Z,1.3
2019-05-09T10:43:00.641Z,1.3
2019-05-09T10:44:00.702Z,1.1
2019-05-09T10:45:00.722Z,1.4
2019-05-09T10:46:00.735Z,1.4
2019-05-09T10:47:02.039Z,1.2
2019-05-09T10:48:00.893Z,1.1
2019-05-09T10:49:00.920Z,1.4
2019-05-09T10:50:00.957Z,1.1
2019-05-09T10:51:03.743Z,1.2
2019-05-09T10:52:02.101Z,1.1
2019-05-09T10:53:01.111Z,1.2
2019-05-09T10:54:01.172Z,1.3
2019-05-09T10:55:01.213Z,1.3
2019-05-09T10:56:01.194Z,1.3
2019-05-09T10:57:01.258Z,1.3
2019-05-09T10:58:02.453Z,1.2
2019-05-09T10:59:01.308Z,1.1
2019-05-09T11:00:01.329Z,1.3
2019-05-09T11:01:01.352Z,0.9
2019-05-09T11:02:01.343Z,1
2019-05-09T11:03:01.364Z,1.4
2019-05-09T11:04:01.424Z,1.1
2019-05-09T11:05:01.445Z,1.5
2019-05-09T11:06:01.473Z,1.5
2019-05-09T11:07:01.540Z,1.2
2019-05-09T11:08:01.563Z,1
2019-05-09T11:09:01.605Z,1.2
2019-05-09T11:10:02.600Z,1
2019-05-09T11:11:05.761Z,1.2
2019-05-09T11:12:02.714Z,1
2019-05-09T11:13:01.950Z,1
2019-05-09T11:14:02.022Z,1.1
2019-05-09T11:15:02.152Z,1.1
2019-05-09T11:16:02.053Z,1.2
2019-05-09T11:17:09.906Z,1
2019-05-09T11:18:03.036Z,1.1
2019-05-09T11:19:02.099Z,1.2
2019-05-09T11:20:02.122Z,0.8
2019-05-09T11:21:02.139Z,1.1
2019-05-09T11:22:02.190Z,1
2019-05-09T11:23:02.210Z,0.9
2019-05-09T11:24:02.286Z,1
2019-05-09T11:25:02.446Z,1.1
2019-05-09T11:26:02.296Z,1.1
2019-05-09T11:27:02.316Z,1.4
2019-05-09T11:28:10.335Z,1.1
2019-05-09T11:29:03.430Z,1.1
2019-05-09T11:30:02.470Z,1.2
2019-05-09T11:31:02.477Z,1.2
2019-05-09T11:32:02.491Z,1
2019-05-09T11:33:02.508Z,1.4
2019-05-09T11:34:02.512Z,1.1
2019-05-09T11:35:02.606Z,1.2
2019-05-09T11:36:02.748Z,1.2
2019-05-09T11:37:02.791Z,1.2
2019-05-09T11:38:03.884Z,1.4
2019-05-09T11:39:03.917Z,1.3
2019-05-09T11:40:03.994Z,1.1
2019-05-09T11:41:03.009Z,1.8
2019-05-09T11:42:03.104Z,1.2
2019-05-09T11:43:03.150Z,1.3
2019-05-09T11:44:03.373Z,1
2019-05-09T11:45:04.220Z,1
2019-05-09T11:46:04.258Z,1.1
2019-05-09T11:47:04.284Z,1.1
2019-05-09T11:49:04.294Z,1.4
2019-05-09T11:51:04.395Z,0.9
2019-05-09T11:53:03.429Z,1.2
2019-05-09T11:54:03.410Z,1
2019-05-09T11:55:03.428Z,1
2019-05-09T11:56:04.490Z,1
2019-05-09T11:57:04.500Z,1.1
2019-05-09T11:58:04.511Z,0.9
2019-05-09T12:03:04.869Z,1.1
2019-05-09T12:04:04.715Z,1
2019-05-09T12:05:04.725Z,1
2019-05-09T12:06:04.893Z,1
2019-05-09T12:07:04.749Z,1
2019-05-09T12:08:04.743Z,0.9
2019-05-09T12:09:04.750Z,1.1
2019-05-09T12:10:07.586Z,1.2
2019-05-09T12:11:03.826Z,1
2019-05-09T12:12:04.922Z,1
2019-05-09T12:13:03.952Z,1.1
2019-05-09T12:14:05.158Z,0.8
2019-05-09T12:15:04.988Z,1.2
2019-05-09T12:16:05.116Z,1.1
2019-05-09T12:17:04.144Z,1.2
2019-05-09T12:18:09.037Z,1.2
2019-05-09T12:19:05.300Z,1.2
2019-05-09T12:20:10.309Z,1.2
2019-05-09T12:21:05.390Z,0.9
2019-05-09T12:22:05.465Z,0.9
2019-05-09T12:23:07.758Z,1
2019-05-09T12:24:04.469Z,0.9
2019-05-09T12:25:05.498Z,0.9
2019-05-09T12:26:04.516Z,0.9
2019-05-09T12:27:04.567Z,0.8
2019-05-09T12:28:04.593Z,0.8
2019-05-09T12:29:05.621Z,1
2019-05-09T12:30:05.628Z,0.9
2019-05-09T12:31:04.646Z,0.8
2019-05-09T12:32:05.718Z,0.8
2019-05-09T12:33:08.306Z,0.8
2019-05-09T12:34:04.733Z,0.9
2019-05-09T12:35:08.587Z,0.8
2019-05-09T12:36:05.768Z,1
2019-05-09T12:37:05.872Z,0.8
2019-05-09T12:38:08.187Z,0.8
2019-05-09T12:39:04.892Z,0.9
2019-05-09T12:40:07.668Z,0.8
2019-05-09T12:41:04.918Z,0.9
2019-05-09T12:42:04.960Z,0.9
2019-05-09T12:43:08.765Z,0.9
2019-05-09T12:44:08.577Z,1
2019-05-09T12:45:05.009Z,0.9
2019-05-09T12:46:08.567Z,1.1
2019-05-09T12:47:05.120Z,1
2019-05-09T12:48:14.069Z,0.8
2019-05-09T12:49:08.717Z,1
2019-05-09T12:50:05.330Z,1
2019-05-09T12:51:08.184Z,0.9
2019-05-09T12:52:08.010Z,0.9
2019-05-09T12:53:05.416Z,0.9
2019-05-09T12:54:08.135Z,0.9
2019-05-09T12:55:08.134Z,1
2019-05-09T12:56:07.858Z,0.9
2019-05-09T12:57:07.919Z,1
2019-05-09T12:58:05.802Z,0.8
2019-05-09T12:59:08.695Z,0.8
2019-05-09T13:00:05.922Z,0.8
2019-05-09T13:01:07.458Z,1
2019-05-09T13:02:06.150Z,1
2019-05-09T13:03:08.313Z,0.9
2019-05-09T13:04:09.431Z,0.7
2019-05-09T13:05:08.025Z,0.7
2019-05-09T13:06:07.957Z,0.7
2019-05-09T13:07:08.521Z,0.6
2019-05-09T13:08:10.182Z,0.6
2019-05-09T13:09:08.300Z,0.6
2019-05-09T13:10:08.672Z,0.6
2019-05-09T13:11:07.982Z,0.7
2019-05-09T13:12:08.578Z,0.5
2019-05-09T13:13:08.582Z,0.8
2019-05-09T13:14:09.904Z,0.6
2019-05-09T13:15:08.843Z,0.5
2019-05-09T13:16:09.762Z,0.5
2019-05-09T13:17:08.152Z,0.5
2019-05-09T13:18:20.232Z,0.5
2019-05-09T13:19:07.755Z,0.5
2019-05-09T13:20:07.927Z,0.7
2019-05-09T13:21:07.780Z,0.5
2019-05-09T13:22:08.072Z,0.6
2019-05-09T13:23:08.813Z,0.6
2019-05-09T13:24:08.286Z,0.6
2019-05-09T13:25:09.024Z,0.5
2019-05-09T13:26:08.260Z,0.5
2019-05-09T13:27:08.041Z,0.7
2019-05-09T13:28:08.191Z,0.5
2019-05-09T13:29:08.041Z,0.5
2019-05-09T13:30:08.299Z,0.4
2019-05-09T13:31:08.208Z,0.6
2019-05-09T13:32:08.719Z,0.8
2019-05-09T13:33:10.685Z,0.5
2019-05-09T13:34:08.585Z,0.5
2019-05-09T13:35:07.747Z,0.4
2019-05-09T13:36:09.207Z,0.4
2019-05-09T13:37:09.027Z,0.5
2019-05-09T13:38:08.665Z,0.5
2019-05-09T13:39:08.704Z,0.5
2019-05-09T13:40:08.541Z,0.4
2019-05-09T13:41:08.504Z,0.6
2019-05-09T13:42:08.257Z,0.5
2019-05-09T13:43:08.869Z,0.5
2019-05-09T13:44:13.166Z,0.6
2019-05-09T13:45:08.949Z,0.5
2019-05-09T13:46:08.946Z,0.4
2019-05-09T13:47:10.582Z,0.4
2019-05-09T13:48:26.315Z,0.5
2019-05-09T13:49:14.261Z,0.5
2019-05-09T13:50:09.152Z,0.5
2019-05-09T13:51:07.977Z,0.5
2019-05-09T13:52:10.093Z,0.6
2019-05-09T13:53:08.228Z,0.5
2019-05-09T13:54:08.321Z,0.5
2019-05-09T13:55:08.763Z,0.6
2019-05-09T13:56:08.575Z,0.6
2019-05-09T13:57:08.723Z,0.6
2019-05-09T13:58:08.530Z,0.4
2019-05-09T13:59:08.589Z,0.6
2019-05-09T14:00:08.952Z,0.6
2019-05-09T14:01:08.629Z,0.3
2019-05-09T14:02:08.653Z,0.3
2019-05-09T14:03:08.661Z,0.3
2019-05-09T14:04:08.770Z,0.3
2019-05-09T14:05:09.213Z,0.4
2019-05-09T14:06:09.085Z,0.4
2019-05-09T14:07:08.854Z,0.4
2019-05-09T14:08:11.522Z,0.4
2019-05-09T14:09:10.406Z,0.4
2019-05-09T14:10:10.373Z,0.3
2019-05-09T14:11:08.990Z,0.3
2019-05-09T14:12:09.483Z,0.4
2019-05-09T14:13:12.851Z,0.3
2019-05-09T14:14:10.134Z,0.4